createdAt,value
2022-10-17T00:01:01.031Z,55.95
2022-10-17T00:03:28.241Z,56.03
2022-10-17T00:05:56.133Z,56.23
2022-10-17T00:08:24.676Z,56.15
2022-10-17T00:11:02.903Z,55.82
2022-10-17T00:13:30.925Z,55.41
2022-10-17T00:15:58.576Z,55.90
2022-10-17T00:18:25.882Z,55.77
2022-10-17T00:20:53.063Z,55.64
2022-10-17T00:23:20.195Z,55.50
2022-10-17T00:25:47.552Z,55.59
2022-10-17T00:28:16.011Z,55.80
2022-10-17T00:30:43.372Z,55.51
2022-10-17T00:33:10.522Z,55.40
2022-10-17T00:35:38.562Z,55.81
2022-10-17T00:38:06.006Z,55.22
2022-10-17T00:40:33.154Z,55.61
2022-10-17T00:43:00.344Z,54.91
2022-10-17T00:45:30.012Z,55.27
2022-10-17T00:48:09.976Z,55.01
2022-10-17T00:50:40.916Z,55.00
2022-10-17T00:53:09.577Z,55.21
2022-10-17T00:55:48.956Z,54.93
2022-10-17T00:58:17.087Z,54.63
2022-10-17T01:00:46.361Z,54.79
2022-10-17T01:03:16.727Z,54.51
2022-10-17T01:05:44.385Z,54.73
2022-10-17T01:08:12.522Z,54.68
2022-10-17T01:10:54.841Z,54.55
2022-10-17T01:13:42.615Z,54.63
2022-10-17T01:16:36.303Z,54.82
2022-10-17T01:19:48.660Z,54.73
2022-10-17T01:23:01.815Z,54.14
2022-10-17T01:26:06.570Z,54.30
2022-10-17T01:28:40.052Z,54.39
2022-10-17T01:31:20.603Z,54.40
2022-10-17T01:33:54.181Z,54.61
2022-10-17T01:36:40.451Z,54.88
2022-10-17T01:39:12.373Z,54.62
2022-10-17T01:42:10.461Z,54.81
2022-10-17T01:44:47.983Z,55.06
2022-10-17T01:47:19.965Z,55.36
2022-10-17T01:49:50.963Z,55.15
2022-10-17T01:52:27.500Z,55.62
2022-10-17T01:55:15.362Z,55.10
2022-10-17T01:57:48.593Z,55.24
2022-10-17T02:00:21.217Z,55.53
2022-10-17T02:02:58.644Z,55.64
2022-10-17T02:05:31.427Z,55.42
2022-10-17T02:07:58.778Z,55.50
2022-10-17T02:10:57.849Z,56.03
2022-10-17T02:14:02.304Z,56.11
2022-10-17T02:16:38.363Z,55.99
2022-10-17T02:19:11.624Z,56.36
2022-10-17T02:21:41.793Z,56.65
2022-10-17T02:24:22.247Z,57.10
2022-10-17T02:27:34.726Z,57.35
2022-10-17T02:30:25.390Z,57.24
2022-10-17T02:33:02.415Z,57.75
2022-10-17T02:35:35.079Z,57.85
2022-10-17T02:38:04.111Z,57.93
2022-10-17T02:40:32.573Z,58.10
2022-10-17T02:43:03.628Z,58.92
2022-10-17T02:45:36.126Z,59.36
2022-10-17T02:48:20.682Z,59.03
2022-10-17T02:50:54.382Z,59.28
2022-10-17T02:53:38.216Z,59.34
2022-10-17T02:56:15.145Z,59.06
2022-10-17T02:58:46.438Z,59.26
2022-10-17T03:01:15.994Z,59.43
2022-10-17T03:03:43.725Z,59.65
2022-10-17T03:06:11.207Z,59.58
2022-10-17T03:08:39.455Z,59.57
2022-10-17T03:11:06.960Z,59.93
2022-10-17T03:13:36.327Z,59.94
2022-10-17T03:16:07.463Z,59.96
2022-10-17T03:18:34.808Z,59.85
2022-10-17T03:21:04.490Z,60.10
2022-10-17T03:23:33.235Z,60.46
2022-10-17T03:26:06.430Z,60.33
2022-10-17T03:28:35.837Z,60.12
2022-10-17T03:31:11.333Z,60.20
2022-10-17T03:33:39.344Z,59.71
2022-10-17T03:36:12.638Z,60.38
2022-10-17T03:38:42.248Z,59.89
2022-10-17T03:41:09.946Z,60.31
2022-10-17T03:43:40.044Z,60.04
2022-10-17T03:46:08.537Z,60.11
2022-10-17T03:48:37.529Z,60.18
2022-10-17T03:51:08.870Z,60.09
2022-10-17T03:53:42.520Z,59.87
2022-10-17T03:56:30.094Z,60.33
2022-10-17T03:59:02.326Z,60.03
2022-10-17T04:01:32.152Z,59.82
2022-10-17T04:04:00.642Z,59.87
2022-10-17T04:06:32.000Z,60.42
2022-10-17T04:09:00.239Z,60.10
2022-10-17T04:11:34.265Z,59.59
2022-10-17T04:14:03.461Z,59.82
2022-10-17T04:16:33.679Z,59.60
2022-10-17T04:19:05.094Z,59.22
2022-10-17T04:21:39.327Z,59.45
2022-10-17T04:24:12.156Z,59.62
2022-10-17T04:26:58.840Z,59.50
2022-10-17T04:29:30.199Z,59.20
2022-10-17T04:32:05.932Z,59.39
2022-10-17T04:34:43.874Z,59.15
2022-10-17T04:37:11.459Z,58.85
2022-10-17T04:39:39.625Z,58.50
2022-10-17T04:42:06.919Z,58.69
2022-10-17T04:44:39.861Z,58.43
2022-10-17T04:47:08.858Z,58.69
2022-10-17T04:49:36.033Z,58.44
2022-10-17T04:52:09.313Z,58.41
2022-10-17T04:54:44.190Z,58.35
2022-10-17T04:57:13.641Z,58.29
2022-10-17T04:59:46.620Z,58.43
2022-10-17T05:02:20.983Z,58.28
2022-10-17T05:04:49.679Z,58.31
2022-10-17T05:07:17.130Z,58.05
2022-10-17T05:09:48.999Z,58.13
2022-10-17T05:12:18.248Z,57.80
2022-10-17T05:14:46.816Z,57.86
2022-10-17T05:17:14.621Z,57.78
2022-10-17T05:19:41.772Z,57.51
2022-10-17T05:22:10.019Z,57.56
2022-10-17T05:24:37.724Z,57.56
2022-10-17T05:27:04.825Z,57.80
2022-10-17T05:29:32.211Z,57.94
2022-10-17T05:32:14.837Z,57.76
2022-10-17T05:34:42.082Z,57.95
2022-10-17T05:37:09.364Z,57.60
2022-10-17T05:39:36.806Z,57.67
2022-10-17T05:42:05.005Z,57.55
2022-10-17T05:44:33.825Z,57.39
2022-10-17T05:47:01.299Z,57.13
2022-10-17T05:49:46.044Z,57.64
2022-10-17T05:52:16.939Z,57.40
2022-10-17T05:54:56.855Z,57.35
2022-10-17T05:57:27.656Z,56.98
2022-10-17T05:59:55.291Z,56.90
2022-10-17T06:02:22.766Z,56.95
2022-10-17T06:04:50.472Z,57.10
2022-10-17T06:07:20.272Z,57.17
2022-10-17T06:09:48.596Z,56.99
2022-10-17T06:12:15.711Z,57.12
2022-10-17T06:14:44.163Z,57.09
2022-10-17T06:17:16.010Z,56.94
2022-10-17T06:19:47.846Z,56.63
2022-10-17T06:22:16.027Z,57.11
2022-10-17T06:24:43.772Z,56.63
2022-10-17T06:27:12.248Z,56.38
2022-10-17T06:29:41.294Z,56.49
2022-10-17T06:32:11.270Z,56.24
2022-10-17T06:34:42.375Z,56.55
2022-10-17T06:37:10.093Z,56.09
2022-10-17T06:39:39.305Z,55.96
2022-10-17T06:42:11.899Z,56.19
2022-10-17T06:44:59.257Z,56.08
2022-10-17T06:47:45.500Z,55.95
2022-10-17T06:50:32.945Z,56.08
2022-10-17T06:53:22.527Z,56.01
2022-10-17T06:56:09.224Z,55.92
2022-10-17T06:58:47.792Z,56.16
2022-10-17T07:01:31.974Z,56.19
2022-10-17T07:04:00.730Z,55.84
2022-10-17T07:06:29.466Z,55.68
2022-10-17T07:09:01.234Z,55.43
2022-10-17T07:11:28.942Z,55.61
2022-10-17T07:13:56.024Z,55.81
2022-10-17T07:16:23.590Z,55.14
2022-10-17T07:18:59.122Z,54.98
2022-10-17T07:21:26.474Z,55.22
2022-10-17T07:23:53.635Z,54.95
2022-10-17T07:26:21.502Z,55.02
2022-10-17T07:28:56.218Z,54.66
2022-10-17T07:31:50.091Z,54.72
2022-10-17T07:34:18.645Z,54.40
2022-10-17T07:36:46.505Z,54.56
2022-10-17T07:39:15.268Z,54.32
2022-10-17T07:41:42.552Z,54.26
2022-10-17T07:44:09.745Z,54.03
2022-10-17T07:46:42.933Z,54.24
2022-10-17T07:49:10.251Z,54.13
2022-10-17T07:51:37.598Z,53.92
2022-10-17T07:54:06.578Z,54.01
2022-10-17T07:56:33.853Z,54.07
2022-10-17T07:59:03.788Z,53.66
2022-10-17T08:01:33.931Z,53.55
2022-10-17T08:04:01.440Z,53.24
2022-10-17T08:06:28.648Z,53.72
2022-10-17T08:08:56.008Z,53.59
2022-10-17T08:11:23.444Z,53.46
2022-10-17T08:13:50.652Z,53.48
2022-10-17T08:16:17.920Z,53.46
2022-10-17T08:18:45.332Z,52.95
2022-10-17T08:21:13.585Z,52.62
2022-10-17T08:23:40.951Z,51.87
2022-10-17T08:26:10.984Z,52.00
2022-10-17T08:28:40.062Z,51.94
2022-10-17T08:31:13.661Z,52.01
2022-10-17T08:33:42.236Z,51.49
2022-10-17T08:36:16.326Z,51.60
2022-10-17T08:38:45.461Z,51.76
2022-10-17T08:41:19.439Z,51.30
2022-10-17T08:44:03.458Z,51.72
2022-10-17T08:46:37.869Z,51.88
2022-10-17T08:49:20.121Z,51.06
2022-10-17T08:52:02.748Z,51.09
2022-10-17T08:54:45.935Z,51.45
2022-10-17T08:57:15.683Z,51.83
2022-10-17T08:59:45.009Z,52.33
2022-10-17T09:02:24.315Z,52.24
2022-10-17T09:05:16.279Z,49.13
2022-10-17T09:07:46.484Z,49.41
2022-10-17T09:10:35.042Z,49.07
2022-10-17T09:13:27.463Z,47.65
2022-10-17T09:16:07.598Z,48.46
2022-10-17T09:18:42.794Z,47.96
2022-10-17T09:21:33.689Z,47.18
2022-10-17T09:24:15.844Z,47.58
2022-10-17T09:26:46.009Z,48.89
2022-10-17T09:29:19.276Z,48.13
2022-10-17T09:32:18.126Z,47.83
2022-10-17T09:34:47.168Z,48.07
2022-10-17T09:37:16.527Z,49.02
2022-10-17T09:39:45.045Z,48.25
2022-10-17T09:42:21.885Z,48.82
2022-10-17T09:45:05.881Z,48.18
2022-10-17T09:48:01.610Z,46.94
2022-10-17T09:50:32.844Z,47.21
2022-10-17T09:53:08.796Z,46.08
2022-10-17T09:55:43.470Z,47.80
2022-10-17T09:58:11.690Z,48.54
2022-10-17T10:00:41.675Z,44.82
2022-10-17T10:03:24.162Z,44.57
2022-10-17T10:06:02.714Z,46.48
2022-10-17T10:08:33.219Z,43.32
2022-10-17T10:11:04.800Z,44.04
2022-10-17T10:13:34.850Z,43.61
2022-10-17T10:16:23.811Z,42.93
2022-10-17T10:18:52.228Z,43.97
2022-10-17T10:21:29.528Z,44.02
2022-10-17T10:24:06.086Z,45.07
2022-10-17T10:26:45.741Z,43.55
2022-10-17T10:29:33.382Z,43.23
2022-10-17T10:32:24.098Z,44.97
2022-10-17T10:35:07.598Z,42.07
2022-10-17T10:37:42.485Z,42.45
2022-10-17T10:40:20.406Z,43.48
2022-10-17T10:42:51.849Z,42.68
2022-10-17T10:45:48.980Z,41.58
2022-10-17T10:48:25.727Z,41.71
2022-10-17T10:51:01.322Z,42.01
2022-10-17T10:54:04.073Z,42.48
2022-10-17T10:56:40.311Z,42.69
2022-10-17T10:59:34.000Z,45.22
2022-10-17T11:02:21.482Z,43.85
2022-10-17T11:05:06.639Z,42.89
2022-10-17T11:07:43.991Z,43.19
2022-10-17T11:10:41.916Z,42.35
2022-10-17T11:13:30.982Z,42.23
2022-10-17T11:16:20.092Z,41.80
2022-10-17T11:18:57.452Z,42.78
2022-10-17T11:21:48.474Z,41.16
2022-10-17T11:24:21.545Z,43.57
2022-10-17T11:27:03.823Z,43.48
2022-10-17T11:29:34.241Z,43.04
2022-10-17T11:32:11.629Z,41.35
2022-10-17T11:34:46.341Z,40.04
2022-10-17T11:37:23.414Z,40.04
2022-10-17T11:40:03.023Z,40.69
2022-10-17T11:42:36.326Z,42.90
2022-10-17T11:45:14.440Z,41.75
2022-10-17T11:47:49.960Z,41.42
2022-10-17T11:53:31.880Z,39.44
2022-10-17T11:56:01.807Z,41.31
2022-10-17T11:58:42.772Z,41.30
2022-10-17T12:01:34.527Z,42.20
2022-10-17T12:04:39.684Z,42.66
2022-10-17T12:07:36.375Z,40.58
2022-10-17T12:10:12.647Z,40.15
2022-10-17T12:12:40.762Z,39.82
2022-10-17T12:15:13.961Z,39.85
2022-10-17T12:17:45.120Z,38.38
2022-10-17T12:20:21.597Z,38.72
2022-10-17T12:22:56.732Z,40.22
2022-10-17T12:25:32.923Z,41.32
2022-10-17T12:28:19.969Z,40.79
2022-10-17T12:31:06.038Z,41.46
2022-10-17T12:33:48.429Z,40.25
2022-10-17T12:36:29.100Z,38.69
2022-10-17T12:39:02.397Z,38.25
2022-10-17T12:41:56.144Z,37.93
2022-10-17T12:44:27.127Z,39.22
2022-10-17T12:46:58.945Z,38.04
2022-10-17T12:49:48.296Z,38.21
2022-10-17T12:52:22.015Z,39.31
2022-10-17T12:55:14.563Z,39.20
2022-10-17T12:58:05.219Z,38.24
2022-10-17T13:00:43.800Z,38.64
2022-10-17T13:03:35.093Z,38.81
2022-10-17T13:06:06.666Z,38.63
2022-10-17T13:08:40.332Z,38.80
2022-10-17T13:11:09.186Z,38.41
2022-10-17T13:13:44.746Z,38.00
2022-10-17T13:16:36.749Z,38.65
2022-10-17T13:19:13.707Z,39.02
2022-10-17T13:21:58.690Z,38.60
2022-10-17T13:24:32.742Z,38.80
2022-10-17T13:27:01.351Z,38.95
2022-10-17T13:29:32.361Z,39.08
2022-10-17T13:32:01.876Z,39.13
2022-10-17T13:34:29.407Z,39.09
2022-10-17T13:37:04.400Z,39.24
2022-10-17T13:39:58.300Z,38.80
2022-10-17T13:42:32.230Z,39.08
2022-10-17T13:45:00.018Z,39.16
2022-10-17T13:47:36.902Z,39.38
2022-10-17T13:50:12.724Z,39.37
2022-10-17T13:52:48.455Z,39.72
2022-10-17T13:55:17.900Z,39.57
2022-10-17T13:57:45.146Z,39.55
2022-10-17T14:00:30.662Z,39.56
2022-10-17T14:02:57.928Z,39.83
2022-10-17T14:05:25.743Z,39.65
2022-10-17T14:10:43.974Z,39.97
2022-10-17T14:13:30.431Z,39.85
2022-10-17T14:16:01.676Z,40.16
2022-10-17T14:18:36.128Z,40.51
2022-10-17T14:21:34.350Z,40.05
2022-10-17T14:24:12.096Z,40.11
2022-10-17T14:26:49.443Z,40.17
2022-10-17T14:29:25.401Z,40.39
2022-10-17T14:32:02.296Z,40.43
2022-10-17T14:34:33.669Z,40.98
2022-10-17T14:37:01.544Z,41.19
2022-10-17T14:39:29.916Z,41.13
2022-10-17T14:41:59.684Z,41.63
2022-10-17T14:44:36.017Z,41.33
2022-10-17T14:47:30.798Z,41.47
2022-10-17T14:50:21.063Z,41.63
2022-10-17T14:53:12.613Z,41.62
2022-10-17T14:55:54.038Z,41.98
2022-10-17T14:58:33.533Z,42.26
2022-10-17T15:01:02.172Z,42.60
2022-10-17T15:03:29.405Z,42.41
2022-10-17T15:05:56.821Z,42.61
2022-10-17T15:08:24.535Z,42.79
2022-10-17T15:10:52.380Z,43.01
2022-10-17T15:13:27.988Z,42.80
2022-10-17T15:15:56.132Z,42.93
2022-10-17T15:18:23.411Z,43.35
2022-10-17T15:20:59.517Z,43.22
2022-10-17T15:23:32.409Z,43.57
2022-10-17T15:25:59.693Z,43.22
2022-10-17T15:28:27.540Z,43.62
2022-10-17T15:30:55.017Z,43.80
2022-10-17T15:33:22.616Z,43.93
2022-10-17T15:35:49.953Z,43.92
2022-10-17T15:38:18.460Z,44.07
2022-10-17T15:40:49.013Z,44.27
2022-10-17T15:43:19.775Z,44.35
2022-10-17T15:45:47.993Z,44.93
2022-10-17T15:48:24.149Z,44.93
2022-10-17T15:50:51.691Z,44.78
2022-10-17T15:53:19.374Z,44.76
2022-10-17T15:55:46.499Z,44.90
2022-10-17T15:58:19.200Z,44.85
2022-10-17T16:00:47.476Z,45.09
2022-10-17T16:03:14.723Z,45.16
2022-10-17T16:05:42.032Z,45.38
2022-10-17T16:08:09.341Z,45.31
2022-10-17T16:10:40.747Z,45.97
2022-10-17T16:13:17.603Z,45.50
2022-10-17T16:15:44.997Z,45.64
2022-10-17T16:18:12.332Z,45.70
2022-10-17T16:20:39.668Z,46.21
2022-10-17T16:23:08.559Z,45.83
2022-10-17T16:25:35.723Z,45.82
2022-10-17T16:28:03.064Z,45.82
2022-10-17T16:30:32.401Z,45.53
2022-10-17T16:32:59.883Z,45.71
2022-10-17T16:35:34.738Z,45.50
2022-10-17T16:38:06.933Z,45.30
2022-10-17T16:40:34.675Z,45.22
2022-10-17T16:43:02.645Z,45.23
2022-10-17T16:45:30.571Z,44.95
2022-10-17T16:47:58.083Z,45.47
2022-10-17T16:50:25.337Z,45.55
2022-10-17T16:52:52.589Z,45.56
2022-10-17T16:55:20.827Z,44.97
2022-10-17T16:57:49.248Z,45.29
2022-10-17T17:00:17.221Z,45.01
2022-10-17T17:02:47.347Z,45.52
2022-10-17T17:05:14.806Z,45.23
2022-10-17T17:07:41.927Z,45.36
2022-10-17T17:10:09.882Z,45.51
2022-10-17T17:12:37.238Z,45.35
2022-10-17T17:15:06.877Z,45.33
2022-10-17T17:17:50.222Z,44.94
2022-10-17T17:20:20.294Z,45.27
2022-10-17T17:22:47.681Z,45.71
2022-10-17T17:25:14.971Z,45.38
2022-10-17T17:27:42.127Z,45.69
2022-10-17T17:30:09.633Z,45.86
2022-10-17T17:32:36.829Z,45.57
2022-10-17T17:35:04.386Z,45.70
2022-10-17T17:37:31.956Z,45.37
2022-10-17T17:39:59.404Z,45.47
2022-10-17T17:42:26.865Z,45.53
2022-10-17T17:44:53.933Z,45.62
2022-10-17T17:47:21.277Z,45.63
2022-10-17T17:49:48.657Z,45.77
2022-10-17T17:52:16.243Z,45.85
2022-10-17T17:54:44.631Z,45.88
2022-10-17T17:57:12.845Z,46.18
2022-10-17T17:59:41.591Z,45.98
2022-10-17T18:02:10.701Z,46.08
2022-10-17T18:04:38.124Z,46.00
2022-10-17T18:07:06.359Z,46.05
2022-10-17T18:09:33.651Z,46.30
2022-10-17T18:12:00.774Z,46.52
2022-10-17T18:14:28.219Z,46.64
2022-10-17T18:16:55.335Z,46.53
2022-10-17T18:19:24.021Z,46.77
2022-10-17T18:21:51.417Z,46.85
2022-10-17T18:24:18.819Z,46.75
2022-10-17T18:26:45.897Z,46.82
2022-10-17T18:29:13.579Z,47.30
2022-10-17T18:31:41.033Z,47.02
2022-10-17T18:34:08.125Z,47.44
2022-10-17T18:36:37.294Z,47.88
2022-10-17T18:39:05.621Z,47.68
2022-10-17T18:41:34.000Z,47.86
2022-10-17T18:44:03.136Z,48.11
2022-10-17T18:46:36.530Z,48.14
2022-10-17T18:49:03.806Z,47.95
2022-10-17T18:51:31.118Z,48.07
2022-10-17T18:53:58.925Z,47.91
2022-10-17T18:56:27.024Z,48.37
2022-10-17T18:58:54.876Z,48.06
2022-10-17T19:01:24.983Z,48.05
2022-10-17T19:03:54.532Z,48.57
2022-10-17T19:06:32.047Z,48.57
2022-10-17T19:09:03.376Z,48.12
2022-10-17T19:11:32.147Z,48.31
2022-10-17T19:14:03.263Z,48.40
2022-10-17T19:16:34.408Z,48.43
2022-10-17T19:19:25.102Z,48.45
2022-10-17T19:21:53.155Z,48.86
2022-10-17T19:24:22.810Z,48.73
2022-10-17T19:26:53.567Z,49.09
2022-10-17T19:29:22.360Z,49.28
2022-10-17T19:31:49.967Z,49.38
2022-10-17T19:34:18.344Z,49.31
2022-10-17T19:36:45.575Z,49.63
2022-10-17T19:39:19.146Z,50.08
2022-10-17T19:41:48.354Z,50.15
2022-10-17T19:44:16.546Z,50.26
2022-10-17T19:46:49.227Z,50.75
2022-10-17T19:49:17.134Z,50.62
2022-10-17T19:51:44.870Z,50.58
2022-10-17T19:54:13.029Z,50.76
2022-10-17T19:56:41.539Z,50.63
2022-10-17T19:59:13.293Z,51.21
2022-10-17T20:01:40.926Z,50.97
2022-10-17T20:04:10.908Z,50.90
2022-10-17T20:06:39.034Z,50.88
2022-10-17T20:09:08.806Z,51.37
2022-10-17T20:11:38.338Z,51.27
2022-10-17T20:14:06.843Z,51.43
2022-10-17T20:16:35.607Z,51.64
2022-10-17T20:19:06.177Z,51.86
2022-10-17T20:21:37.532Z,51.81
2022-10-17T20:24:08.628Z,52.07
2022-10-17T20:26:38.538Z,51.87
2022-10-17T20:29:11.613Z,52.33
2022-10-17T20:31:40.647Z,52.58
2022-10-17T20:34:07.939Z,52.61
2022-10-17T20:36:37.651Z,52.78
2022-10-17T20:39:05.656Z,52.68
2022-10-17T20:41:33.398Z,52.94
2022-10-17T20:44:00.725Z,52.84
2022-10-17T20:49:18.325Z,52.70
2022-10-17T20:51:48.956Z,52.96
2022-10-17T20:54:16.321Z,52.72
2022-10-17T20:56:43.751Z,53.41
2022-10-17T20:59:13.746Z,53.17
2022-10-17T21:01:41.328Z,53.41
2022-10-17T21:04:40.339Z,53.18
2022-10-17T21:06:57.583Z,53.31
2022-10-17T21:09:25.525Z,53.33
2022-10-17T21:11:57.815Z,53.37
2022-10-17T21:14:25.959Z,53.76
2022-10-17T21:16:53.466Z,53.47
2022-10-17T21:19:22.064Z,53.42
2022-10-17T21:21:49.349Z,53.29
2022-10-17T21:24:19.336Z,53.68
2022-10-17T21:26:50.460Z,54.04
2022-10-17T21:29:17.773Z,54.15
2022-10-17T21:31:47.430Z,54.57
2022-10-17T21:34:21.479Z,54.52
2022-10-17T21:36:49.447Z,54.63
2022-10-17T21:39:24.311Z,54.92
2022-10-17T21:41:52.736Z,54.84
2022-10-17T21:44:26.123Z,55.26
2022-10-17T21:46:54.354Z,55.27
2022-10-17T21:49:23.857Z,55.49
2022-10-17T21:51:52.339Z,55.69
2022-10-17T21:54:20.903Z,55.80
2022-10-17T21:56:48.143Z,55.68
2022-10-17T21:59:15.803Z,56.05
2022-10-17T22:01:45.011Z,56.15
2022-10-17T22:04:17.812Z,56.43
2022-10-17T22:06:48.370Z,56.32
2022-10-17T22:09:22.015Z,56.70
2022-10-17T22:11:53.038Z,56.78
2022-10-17T22:14:25.207Z,56.78
2022-10-17T22:16:52.677Z,56.54
2022-10-17T22:19:26.762Z,57.08
2022-10-17T22:21:54.936Z,56.70
2022-10-17T22:24:23.129Z,56.75
2022-10-17T22:26:51.541Z,56.94
2022-10-17T22:29:19.350Z,57.15
2022-10-17T22:31:46.860Z,57.24
2022-10-17T22:34:16.805Z,57.58
2022-10-17T22:36:44.622Z,57.52
2022-10-17T22:39:11.861Z,57.48
2022-10-17T22:41:39.138Z,57.63
2022-10-17T22:44:06.626Z,57.68
2022-10-17T22:46:34.334Z,57.54
2022-10-17T22:49:01.678Z,57.82
2022-10-17T22:51:29.394Z,57.75
2022-10-17T22:53:57.014Z,58.01
2022-10-17T22:56:24.491Z,58.15
2022-10-17T22:58:51.793Z,57.94
2022-10-17T23:01:23.686Z,58.74
2022-10-17T23:03:52.776Z,58.59
2022-10-17T23:06:20.777Z,58.66
2022-10-17T23:08:48.433Z,58.60
2022-10-17T23:11:15.564Z,58.87
2022-10-17T23:13:43.133Z,58.45
2022-10-17T23:16:10.401Z,58.82
2022-10-17T23:18:38.875Z,59.06
2022-10-17T23:21:06.515Z,59.12
2022-10-17T23:23:33.828Z,59.12
2022-10-17T23:26:10.891Z,59.67
2022-10-17T23:28:38.347Z,59.12
2022-10-17T23:31:24.167Z,59.70
2022-10-17T23:33:51.517Z,59.23
2022-10-17T23:36:20.865Z,59.70
2022-10-17T23:38:50.205Z,59.50
2022-10-17T23:41:18.281Z,59.37
2022-10-17T23:43:45.391Z,59.38
2022-10-17T23:46:13.024Z,59.53
2022-10-17T23:48:40.970Z,59.25
2022-10-17T23:51:09.684Z,59.16
2022-10-17T23:53:38.465Z,59.40
2022-10-17T23:56:06.316Z,59.29
2022-10-17T23:58:33.901Z,59.24
